sensor_id;sensor_type;location;lat;lon;timestamp;pressure;altitude;pressure_sealevel;temperature;humidity
42859;BME280;28505;56.970;40.998;2024-02-21T00:05:20;101123.38;;;-6.93;100.00
42859;BME280;28505;56.970;40.998;2024-02-21T00:10:42;101110.53;;;-7.04;100.00
42859;BME280;28505;56.970;40.998;2024-02-21T00:16:17;101094.16;;;-6.80;100.00
42859;BME280;28505;56.970;40.998;2024-02-21T00:21:40;101082.72;;;-6.97;100.00
42859;BME280;28505;56.970;40.998;2024-02-21T00:27:03;101097.84;;;-6.91;100.00
42859;BME280;28505;56.970;40.998;2024-02-21T00:32:26;101094.19;;;-6.98;100.00
42859;BME280;28505;56.970;40.998;2024-02-21T00:37:50;101091.91;;;-8.30;100.00
42859;BME280;28505;56.970;40.998;2024-02-21T00:43:25;101076.56;;;-7.60;100.00
42859;BME280;28505;56.970;40.998;2024-02-21T00:49:22;101077.06;;;-8.66;100.00
42859;BME280;28505;56.970;40.998;2024-02-21T00:54:45;101068.09;;;-10.11;100.00
42859;BME280;28505;56.970;40.998;2024-02-21T01:00:15;101052.63;;;-10.43;100.00
42859;BME280;28505;56.970;40.998;2024-02-21T01:05:37;101068.19;;;-10.32;100.00
42859;BME280;28505;56.970;40.998;2024-02-21T01:11:00;101067.44;;;-8.85;100.00
42859;BME280;28505;56.970;40.998;2024-02-21T01:16:22;101060.16;;;-9.59;100.00
42859;BME280;28505;56.970;40.998;2024-02-21T01:21:57;101045.31;;;-10.19;100.00
42859;BME280;28505;56.970;40.998;2024-02-21T01:27:19;101040.75;;;-8.79;100.00
42859;BME280;28505;56.970;40.998;2024-02-21T01:32:41;101029.09;;;-9.62;100.00
42859;BME280;28505;56.970;40.998;2024-02-21T01:38:04;101015.97;;;-8.75;100.00
42859;BME280;28505;56.970;40.998;2024-02-21T01:43:27;101024.59;;;-8.00;100.00
42859;BME280;28505;56.970;40.998;2024-02-21T01:48:49;101007.13;;;-8.27;100.00
42859;BME280;28505;56.970;40.998;2024-02-21T01:54:14;101009.31;;;-8.50;100.00
42859;BME280;28505;56.970;40.998;2024-02-21T01:59:37;101002.25;;;-8.22;100.00
42859;BME280;28505;56.970;40.998;2024-02-21T02:05:00;101004.75;;;-8.20;100.00
42859;BME280;28505;56.970;40.998;2024-02-21T02:10:23;101011.22;;;-7.97;100.00
42859;BME280;28505;56.970;40.998;2024-02-21T02:15:47;101005.53;;;-8.38;100.00
42859;BME280;28505;56.970;40.998;2024-02-21T02:21:38;101006.97;;;-7.09;100.00
42859;BME280;28505;56.970;40.998;2024-02-21T02:27:04;101000.56;;;-7.32;100.00
42859;BME280;28505;56.970;40.998;2024-02-21T02:32:27;101000.06;;;-7.10;100.00
42859;BME280;28505;56.970;40.998;2024-02-21T02:37:49;100995.00;;;-6.85;100.00
42859;BME280;28505;56.970;40.998;2024-02-21T02:43:14;100989.91;;;-7.13;100.00
42859;BME280;28505;56.970;40.998;2024-02-21T02:48:36;100990.81;;;-7.22;100.00
42859;BME280;28505;56.970;40.998;2024-02-21T02:54:00;100979.81;;;-7.25;100.00
42859;BME280;28505;56.970;40.998;2024-02-21T02:59:22;100972.22;;;-6.85;100.00
42859;BME280;28505;56.970;40.998;2024-02-21T03:04:44;100981.59;;;-6.82;100.00
42859;BME280;28505;56.970;40.998;2024-02-21T03:10:06;100983.25;;;-7.43;100.00
42859;BME280;28505;56.970;40.998;2024-02-21T03:15:30;100966.09;;;-7.45;100.00
42859;BME280;28505;56.970;40.998;2024-02-21T03:20:52;100963.63;;;-7.21;100.00
42859;BME280;28505;56.970;40.998;2024-02-21T03:26:27;100972.78;;;-7.43;100.00
42859;BME280;28505;56.970;40.998;2024-02-21T03:32:01;100983.13;;;-8.22;100.00
42859;BME280;28505;56.970;40.998;2024-02-21T03:37:24;100989.75;;;-8.28;100.00
42859;BME280;28505;56.970;40.998;2024-02-21T03:42:59;100987.84;;;-7.45;100.00
42859;BME280;28505;56.970;40.998;2024-02-21T03:48:21;100960.16;;;-8.29;100.00
42859;BME280;28505;56.970;40.998;2024-02-21T03:53:43;100963.94;;;-8.59;100.00
42859;BME280;28505;56.970;40.998;2024-02-21T03:59:09;100977.72;;;-7.40;100.00
42859;BME280;28505;56.970;40.998;2024-02-21T04:04:45;100989.72;;;-7.73;100.00
42859;BME280;28505;56.970;40.998;2024-02-21T04:10:22;100992.63;;;-7.40;100.00
42859;BME280;28505;56.970;40.998;2024-02-21T04:15:45;100986.19;;;-7.28;100.00
42859;BME280;28505;56.970;40.998;2024-02-21T04:21:08;100990.91;;;-7.49;100.00
42859;BME280;28505;56.970;40.998;2024-02-21T04:26:34;101003.25;;;-8.60;100.00
42859;BME280;28505;56.970;40.998;2024-02-21T04:31:57;100986.16;;;-8.82;100.00
42859;BME280;28505;56.970;40.998;2024-02-21T04:37:20;101009.78;;;-7.91;100.00
42859;BME280;28505;56.970;40.998;2024-02-21T04:42:45;100991.63;;;-8.38;100.00
42859;BME280;28505;56.970;40.998;2024-02-21T04:48:08;101012.31;;;-7.18;100.00
42859;BME280;28505;56.970;40.998;2024-02-21T04:53:30;100985.28;;;-7.90;100.00
42859;BME280;28505;56.970;40.998;2024-02-21T04:58:53;101001.31;;;-7.58;100.00
42859;BME280;28505;56.970;40.998;2024-02-21T05:04:28;100998.09;;;-8.15;100.00
42859;BME280;28505;56.970;40.998;2024-02-21T05:09:51;101002.59;;;-7.62;100.00
42859;BME280;28505;56.970;40.998;2024-02-21T05:15:13;101002.66;;;-8.17;100.00
42859;BME280;28505;56.970;40.998;2024-02-21T05:20:35;101002.13;;;-7.39;100.00
42859;BME280;28505;56.970;40.998;2024-02-21T05:25:57;101010.56;;;-9.50;100.00
42859;BME280;28505;56.970;40.998;2024-02-21T05:31:20;101015.19;;;-7.75;100.00
42859;BME280;28505;56.970;40.998;2024-02-21T05:36:43;101017.09;;;-7.49;100.00
42859;BME280;28505;56.970;40.998;2024-02-21T05:42:08;101015.50;;;-9.66;100.00
42859;BME280;28505;56.970;40.998;2024-02-21T05:47:30;101028.28;;;-8.48;100.00
42859;BME280;28505;56.970;40.998;2024-02-21T05:52:55;101023.84;;;-9.72;100.00
42859;BME280;28505;56.970;40.998;2024-02-21T05:58:30;101025.88;;;-8.04;100.00
42859;BME280;28505;56.970;40.998;2024-02-21T06:03:53;101019.09;;;-7.79;100.00
42859;BME280;28505;56.970;40.998;2024-02-21T06:09:16;101023.59;;;-7.18;100.00
42859;BME280;28505;56.970;40.998;2024-02-21T06:14:50;101013.81;;;-8.25;100.00
42859;BME280;28505;56.970;40.998;2024-02-21T06:20:12;101023.81;;;-7.11;100.00
42859;BME280;28505;56.970;40.998;2024-02-21T06:25:47;101025.03;;;-7.23;100.00
42859;BME280;28505;56.970;40.998;2024-02-21T06:31:21;101021.28;;;-7.74;100.00
42859;BME280;28505;56.970;40.998;2024-02-21T06:36:45;101026.94;;;-6.90;100.00
42859;BME280;28505;56.970;40.998;2024-02-21T06:42:07;101021.72;;;-6.64;100.00
42859;BME280;28505;56.970;40.998;2024-02-21T06:47:41;101023.34;;;-6.89;100.00
42859;BME280;28505;56.970;40.998;2024-02-21T06:53:03;101031.25;;;-6.54;100.00
42859;BME280;28505;56.970;40.998;2024-02-21T06:58:37;101034.38;;;-7.74;100.00
42859;BME280;28505;56.970;40.998;2024-02-21T07:04:00;101026.19;;;-6.74;100.00
42859;BME280;28505;56.970;40.998;2024-02-21T07:09:23;101031.47;;;-7.54;100.00
42859;BME280;28505;56.970;40.998;2024-02-21T07:15:03;101029.13;;;-7.21;100.00
42859;BME280;28505;56.970;40.998;2024-02-21T07:21:04;101012.66;;;-6.69;100.00
42859;BME280;28505;56.970;40.998;2024-02-21T07:26:29;101024.25;;;-6.72;100.00
42859;BME280;28505;56.970;40.998;2024-02-21T07:31:52;101018.78;;;-6.18;100.00
42859;BME280;28505;56.970;40.998;2024-02-21T07:37:15;100998.22;;;-6.39;100.00
42859;BME280;28505;56.970;40.998;2024-02-21T07:42:42;101028.53;;;-6.10;100.00
42859;BME280;28505;56.970;40.998;2024-02-21T07:48:08;101035.78;;;-6.04;100.00
42859;BME280;28505;56.970;40.998;2024-02-21T07:53:31;101034.72;;;-6.20;100.00
42859;BME280;28505;56.970;40.998;2024-02-21T07:59:07;101025.59;;;-5.99;100.00
42859;BME280;28505;56.970;40.998;2024-02-21T08:04:30;101023.09;;;-6.17;100.00
42859;BME280;28505;56.970;40.998;2024-02-21T08:09:53;101019.91;;;-6.29;100.00
42859;BME280;28505;56.970;40.998;2024-02-21T08:15:15;101018.34;;;-6.14;100.00
42859;BME280;28505;56.970;40.998;2024-02-21T08:20:37;101034.97;;;-5.97;100.00
42859;BME280;28505;56.970;40.998;2024-02-21T08:26:03;101043.16;;;-6.08;100.00
42859;BME280;28505;56.970;40.998;2024-02-21T08:31:26;101039.53;;;-5.99;100.00
42859;BME280;28505;56.970;40.998;2024-02-21T08:37:04;101032.84;;;-5.85;100.00
42859;BME280;28505;56.970;40.998;2024-02-21T08:42:27;101038.34;;;-5.37;100.00
42859;BME280;28505;56.970;40.998;2024-02-21T08:47:52;101030.94;;;-5.50;100.00
42859;BME280;28505;56.970;40.998;2024-02-21T08:53:26;101030.38;;;-5.95;100.00
42859;BME280;28505;56.970;40.998;2024-02-21T08:58:48;101025.81;;;-5.76;100.00
42859;BME280;28505;56.970;40.998;2024-02-21T09:04:10;101039.66;;;-5.58;100.00
42859;BME280;28505;56.970;40.998;2024-02-21T09:09:32;101014.34;;;-5.67;100.00
42859;BME280;28505;56.970;40.998;2024-02-21T09:15:19;101004.28;;;-5.80;100.00
42859;BME280;28505;56.970;40.998;2024-02-21T09:20:44;101032.06;;;-5.69;100.00
42859;BME280;28505;56.970;40.998;2024-02-21T09:26:07;101012.91;;;-5.45;100.00
42859;BME280;28505;56.970;40.998;2024-02-21T09:31:41;101017.19;;;-5.36;100.00
42859;BME280;28505;56.970;40.998;2024-02-21T09:37:03;101014.97;;;-5.73;100.00
42859;BME280;28505;56.970;40.998;2024-02-21T09:42:39;101010.09;;;-5.44;100.00
42859;BME280;28505;56.970;40.998;2024-02-21T09:48:25;101007.34;;;-5.26;100.00
42859;BME280;28505;56.970;40.998;2024-02-21T09:53:51;101008.63;;;-5.22;100.00
42859;BME280;28505;56.970;40.998;2024-02-21T09:59:51;101008.47;;;-5.12;100.00
42859;BME280;28505;56.970;40.998;2024-02-21T10:05:23;100998.78;;;-5.36;100.00
42859;BME280;28505;56.970;40.998;2024-02-21T10:10:46;100989.41;;;-5.47;100.00
42859;BME280;28505;56.970;40.998;2024-02-21T10:16:21;100990.91;;;-5.52;100.00
42859;BME280;28505;56.970;40.998;2024-02-21T10:27:50;100991.03;;;-5.54;100.00
42859;BME280;28505;56.970;40.998;2024-02-21T10:33:18;100988.59;;;-5.14;100.00
42859;BME280;28505;56.970;40.998;2024-02-21T10:38:56;101002.88;;;-5.17;100.00
42859;BME280;28505;56.970;40.998;2024-02-21T10:44:32;101007.00;;;-5.31;100.00
42859;BME280;28505;56.970;40.998;2024-02-21T10:50:04;100992.38;;;-5.42;100.00
42859;BME280;28505;56.970;40.998;2024-02-21T10:55:38;100993.88;;;-5.39;100.00
42859;BME280;28505;56.970;40.998;2024-02-21T11:01:20;100978.91;;;-5.55;100.00
42859;BME280;28505;56.970;40.998;2024-02-21T11:06:50;100990.22;;;-5.30;100.00
42859;BME280;28505;56.970;40.998;2024-02-21T11:13:16;100977.78;;;-5.36;100.00
42859;BME280;28505;56.970;40.998;2024-02-21T11:25:44;100981.03;;;-5.42;100.00
42859;BME280;28505;56.970;40.998;2024-02-21T11:31:20;100984.47;;;-5.58;100.00
42859;BME280;28505;56.970;40.998;2024-02-21T11:36:52;100972.03;;;-5.23;100.00
42859;BME280;28505;56.970;40.998;2024-02-21T11:42:15;100957.38;;;-5.50;100.00
42859;BME280;28505;56.970;40.998;2024-02-21T11:47:37;100969.72;;;-5.59;100.00
42859;BME280;28505;56.970;40.998;2024-02-21T11:53:04;100963.13;;;-5.63;100.00
42859;BME280;28505;56.970;40.998;2024-02-21T11:58:27;100962.66;;;-5.58;100.00
42859;BME280;28505;56.970;40.998;2024-02-21T12:03:51;100964.63;;;-5.36;100.00
42859;BME280;28505;56.970;40.998;2024-02-21T12:09:17;100964.94;;;-5.55;100.00
42859;BME280;28505;56.970;40.998;2024-02-21T12:14:39;100959.69;;;-5.23;100.00
42859;BME280;28505;56.970;40.998;2024-02-21T12:20:06;100953.44;;;-5.30;100.00
42859;BME280;28505;56.970;40.998;2024-02-21T12:25:34;100963.47;;;-5.42;100.00
42859;BME280;28505;56.970;40.998;2024-02-21T12:31:08;100970.69;;;-5.44;100.00
42859;BME280;28505;56.970;40.998;2024-02-21T12:36:44;100946.03;;;-5.67;100.00
42859;BME280;28505;56.970;40.998;2024-02-21T12:42:11;100945.88;;;-5.57;100.00
42859;BME280;28505;56.970;40.998;2024-02-21T12:47:33;100948.53;;;-5.49;100.00
42859;BME280;28505;56.970;40.998;2024-02-21T12:52:59;100976.25;;;-5.47;100.00
42859;BME280;28505;56.970;40.998;2024-02-21T12:58:22;100960.34;;;-5.53;100.00
42859;BME280;28505;56.970;40.998;2024-02-21T13:03:45;100948.84;;;-5.69;100.00
42859;BME280;28505;56.970;40.998;2024-02-21T13:09:08;100955.72;;;-5.68;100.00
42859;BME280;28505;56.970;40.998;2024-02-21T13:14:45;100973.47;;;-5.53;100.00
42859;BME280;28505;56.970;40.998;2024-02-21T13:20:11;100965.56;;;-5.70;100.00
42859;BME280;28505;56.970;40.998;2024-02-21T13:25:36;100971.00;;;-5.63;100.00
42859;BME280;28505;56.970;40.998;2024-02-21T13:30:58;100962.28;;;-5.63;100.00
42859;BME280;28505;56.970;40.998;2024-02-21T13:36:23;100954.75;;;-5.75;100.00
42859;BME280;28505;56.970;40.998;2024-02-21T13:41:46;100951.63;;;-5.78;100.00
42859;BME280;28505;56.970;40.998;2024-02-21T13:47:09;100948.47;;;-5.90;100.00
42859;BME280;28505;56.970;40.998;2024-02-21T13:52:46;100956.03;;;-5.87;100.00
42859;BME280;28505;56.970;40.998;2024-02-21T13:58:08;100952.09;;;-5.99;100.00
42859;BME280;28505;56.970;40.998;2024-02-21T14:03:31;100961.09;;;-6.02;100.00
42859;BME280;28505;56.970;40.998;2024-02-21T14:09:05;100967.06;;;-5.75;100.00
42859;BME280;28505;56.970;40.998;2024-02-21T14:14:28;100957.03;;;-5.96;100.00
42859;BME280;28505;56.970;40.998;2024-02-21T14:19:51;100979.34;;;-5.76;100.00
42859;BME280;28505;56.970;40.998;2024-02-21T14:25:17;100970.47;;;-5.91;100.00
42859;BME280;28505;56.970;40.998;2024-02-21T14:30:40;100966.84;;;-5.90;100.00
42859;BME280;28505;56.970;40.998;2024-02-21T14:36:02;100978.03;;;-6.04;100.00
42859;BME280;28505;56.970;40.998;2024-02-21T14:41:25;100970.41;;;-6.16;100.00
42859;BME280;28505;56.970;40.998;2024-02-21T14:46:47;100969.97;;;-5.86;100.00
42859;BME280;28505;56.970;40.998;2024-02-21T14:52:09;100979.31;;;-5.92;100.00
42859;BME280;28505;56.970;40.998;2024-02-21T14:57:32;100981.97;;;-6.00;100.00
42859;BME280;28505;56.970;40.998;2024-02-21T15:02:54;100966.53;;;-5.87;100.00
42859;BME280;28505;56.970;40.998;2024-02-21T15:08:17;100969.31;;;-6.05;100.00
42859;BME280;28505;56.970;40.998;2024-02-21T15:13:40;100965.41;;;-5.93;100.00
42859;BME280;28505;56.970;40.998;2024-02-21T15:19:03;100959.78;;;-6.06;100.00
42859;BME280;28505;56.970;40.998;2024-02-21T15:24:26;100962.28;;;-5.96;100.00
42859;BME280;28505;56.970;40.998;2024-02-21T15:30:21;100967.22;;;-5.93;100.00
42859;BME280;28505;56.970;40.998;2024-02-21T15:36:06;100979.03;;;-5.81;100.00
42859;BME280;28505;56.970;40.998;2024-02-21T15:41:40;100981.97;;;-6.00;100.00
42859;BME280;28505;56.970;40.998;2024-02-21T15:47:06;100972.13;;;-5.82;100.00
42859;BME280;28505;56.970;40.998;2024-02-21T15:52:28;100957.47;;;-6.09;100.00
42859;BME280;28505;56.970;40.998;2024-02-21T15:57:51;100978.66;;;-5.86;100.00
42859;BME280;28505;56.970;40.998;2024-02-21T16:03:26;100959.16;;;-6.50;100.00
42859;BME280;28505;56.970;40.998;2024-02-21T16:08:52;100959.16;;;-6.50;100.00
42859;BME280;28505;56.970;40.998;2024-02-21T16:14:14;100948.28;;;-6.13;100.00
42859;BME280;28505;56.970;40.998;2024-02-21T16:19:36;100936.31;;;-6.16;100.00
42859;BME280;28505;56.970;40.998;2024-02-21T16:25:03;100932.06;;;-6.51;100.00
42859;BME280;28505;56.970;40.998;2024-02-21T16:30:26;100931.50;;;-6.28;100.00
42859;BME280;28505;56.970;40.998;2024-02-21T16:35:59;100945.69;;;-6.90;100.00
42859;BME280;28505;56.970;40.998;2024-02-21T16:41:34;100933.22;;;-6.53;100.00
42859;BME280;28505;56.970;40.998;2024-02-21T16:46:59;100927.47;;;-6.57;100.00
42859;BME280;28505;56.970;40.998;2024-02-21T16:52:23;100935.53;;;-7.11;100.00
42859;BME280;28505;56.970;40.998;2024-02-21T16:57:45;100927.13;;;-6.96;100.00
42859;BME280;28505;56.970;40.998;2024-02-21T17:03:26;100939.53;;;-6.72;100.00
42859;BME280;28505;56.970;40.998;2024-02-21T17:08:49;100931.13;;;-7.10;100.00
42859;BME280;28505;56.970;40.998;2024-02-21T17:14:11;100920.63;;;-6.84;100.00
42859;BME280;28505;56.970;40.998;2024-02-21T17:19:34;100912.22;;;-6.96;100.00
42859;BME280;28505;56.970;40.998;2024-02-21T17:24:57;100910.44;;;-6.87;100.00
42859;BME280;28505;56.970;40.998;2024-02-21T17:30:20;100913.06;;;-7.13;100.00
42859;BME280;28505;56.970;40.998;2024-02-21T17:35:46;100900.59;;;-6.51;100.00
42859;BME280;28505;56.970;40.998;2024-02-21T17:41:10;100918.63;;;-7.60;100.00
42859;BME280;28505;56.970;40.998;2024-02-21T17:46:32;100912.88;;;-6.60;100.00
42859;BME280;28505;56.970;40.998;2024-02-21T17:52:06;100905.75;;;-7.54;100.00
42859;BME280;28505;56.970;40.998;2024-02-21T17:57:28;100896.28;;;-7.02;100.00
42859;BME280;28505;56.970;40.998;2024-02-21T18:02:51;100906.63;;;-7.71;100.00
42859;BME280;28505;56.970;40.998;2024-02-21T18:08:13;100893.53;;;-7.71;100.00
42859;BME280;28505;56.970;40.998;2024-02-21T18:13:41;100901.69;;;-7.74;100.00
42859;BME280;28505;56.970;40.998;2024-02-21T18:19:07;100890.44;;;-6.96;100.00
42859;BME280;28505;56.970;40.998;2024-02-21T18:24:30;100890.91;;;-7.71;100.00
42859;BME280;28505;56.970;40.998;2024-02-21T18:29:55;100895.25;;;-7.62;100.00
42859;BME280;28505;56.970;40.998;2024-02-21T18:35:41;100879.16;;;-7.67;100.00
42859;BME280;28505;56.970;40.998;2024-02-21T18:41:04;100870.09;;;-8.62;100.00
42859;BME280;28505;56.970;40.998;2024-02-21T18:46:32;100869.06;;;-7.36;100.00
42859;BME280;28505;56.970;40.998;2024-02-21T18:51:56;100872.75;;;-7.90;100.00
42859;BME280;28505;56.970;40.998;2024-02-21T18:57:18;100872.31;;;-7.60;100.00
42859;BME280;28505;56.970;40.998;2024-02-21T19:02:41;100863.84;;;-7.36;100.00
42859;BME280;28505;56.970;40.998;2024-02-21T19:08:06;100885.81;;;-7.28;100.00
42859;BME280;28505;56.970;40.998;2024-02-21T19:13:40;100855.63;;;-8.03;100.00
42859;BME280;28505;56.970;40.998;2024-02-21T19:19:15;100866.19;;;-7.24;100.00
42859;BME280;28505;56.970;40.998;2024-02-21T19:25:02;100867.78;;;-6.97;100.00
42859;BME280;28505;56.970;40.998;2024-02-21T19:30:28;100860.44;;;-7.28;100.00
42859;BME280;28505;56.970;40.998;2024-02-21T19:35:53;100861.25;;;-7.27;100.00
42859;BME280;28505;56.970;40.998;2024-02-21T19:41:16;100861.63;;;-6.88;100.00
42859;BME280;28505;56.970;40.998;2024-02-21T19:46:38;100862.34;;;-7.04;100.00
42859;BME280;28505;56.970;40.998;2024-02-21T19:52:00;100840.69;;;-7.14;100.00
42859;BME280;28505;56.970;40.998;2024-02-21T19:57:22;100854.03;;;-6.99;100.00
42859;BME280;28505;56.970;40.998;2024-02-21T20:02:45;100844.44;;;-7.17;100.00
42859;BME280;28505;56.970;40.998;2024-02-21T20:08:07;100823.59;;;-7.53;100.00
42859;BME280;28505;56.970;40.998;2024-02-21T20:13:32;100822.53;;;-7.68;100.00
42859;BME280;28505;56.970;40.998;2024-02-21T20:18:56;100841.69;;;-7.85;100.00
42859;BME280;28505;56.970;40.998;2024-02-21T20:25:11;100839.13;;;-6.99;100.00
42859;BME280;28505;56.970;40.998;2024-02-21T20:30:52;100830.03;;;-6.87;100.00
42859;BME280;28505;56.970;40.998;2024-02-21T20:36:15;100819.97;;;-6.99;100.00
42859;BME280;28505;56.970;40.998;2024-02-21T20:41:38;100798.03;;;-7.59;100.00
42859;BME280;28505;56.970;40.998;2024-02-21T20:47:02;100803.41;;;-7.34;100.00
42859;BME280;28505;56.970;40.998;2024-02-21T20:52:39;100807.53;;;-7.32;100.00
42859;BME280;28505;56.970;40.998;2024-02-21T20:58:02;100805.50;;;-7.03;100.00
42859;BME280;28505;56.970;40.998;2024-02-21T21:03:24;100789.34;;;-7.33;100.00
42859;BME280;28505;56.970;40.998;2024-02-21T21:08:55;100782.22;;;-7.75;100.00
42859;BME280;28505;56.970;40.998;2024-02-21T21:14:17;100792.59;;;-6.97;100.00
42859;BME280;28505;56.970;40.998;2024-02-21T21:19:40;100801.88;;;-7.11;100.00
42859;BME280;28505;56.970;40.998;2024-02-21T21:25:15;100797.69;;;-6.95;100.00
42859;BME280;28505;56.970;40.998;2024-02-21T21:30:38;100788.22;;;-6.96;100.00
42859;BME280;28505;56.970;40.998;2024-02-21T21:36:00;100789.03;;;-7.30;100.00
42859;BME280;28505;56.970;40.998;2024-02-21T21:41:22;100783.47;;;-7.87;100.00
42859;BME280;28505;56.970;40.998;2024-02-21T21:46:45;100780.38;;;-7.57;100.00
42859;BME280;28505;56.970;40.998;2024-02-21T21:52:10;100785.63;;;-7.22;100.00
42859;BME280;28505;56.970;40.998;2024-02-21T21:57:33;100795.50;;;-7.42;100.00
42859;BME280;28505;56.970;40.998;2024-02-21T22:02:58;100796.25;;;-6.90;100.00
42859;BME280;28505;56.970;40.998;2024-02-21T22:08:23;100790.03;;;-6.89;100.00
42859;BME280;28505;56.970;40.998;2024-02-21T22:13:46;100805.25;;;-7.79;100.00
42859;BME280;28505;56.970;40.998;2024-02-21T22:19:10;100798.84;;;-6.98;100.00
42859;BME280;28505;56.970;40.998;2024-02-21T22:24:33;100797.63;;;-7.12;100.00
42859;BME280;28505;56.970;40.998;2024-02-21T22:29:57;100787.47;;;-7.15;100.00
42859;BME280;28505;56.970;40.998;2024-02-21T22:35:19;100780.84;;;-7.61;100.00
42859;BME280;28505;56.970;40.998;2024-02-21T22:40:42;100795.25;;;-6.89;100.00
42859;BME280;28505;56.970;40.998;2024-02-21T22:46:34;100798.97;;;-7.08;100.00
42859;BME280;28505;56.970;40.998;2024-02-21T22:51:56;100793.84;;;-7.95;100.00
42859;BME280;28505;56.970;40.998;2024-02-21T22:57:21;100789.91;;;-6.71;100.00
42859;BME280;28505;56.970;40.998;2024-02-21T23:02:43;100787.00;;;-6.60;100.00
42859;BME280;28505;56.970;40.998;2024-02-21T23:08:06;100784.31;;;-6.76;100.00
42859;BME280;28505;56.970;40.998;2024-02-21T23:13:29;100768.88;;;-6.87;100.00
42859;BME280;28505;56.970;40.998;2024-02-21T23:18:53;100763.13;;;-6.99;100.00
42859;BME280;28505;56.970;40.998;2024-02-21T23:24:15;100760.38;;;-6.81;100.00
42859;BME280;28505;56.970;40.998;2024-02-21T23:29:37;100752.00;;;-6.93;100.00
42859;BME280;28505;56.970;40.998;2024-02-21T23:35:10;100766.50;;;-7.15;100.00
42859;BME280;28505;56.970;40.998;2024-02-21T23:41:09;100754.59;;;-7.43;100.00
42859;BME280;28505;56.970;40.998;2024-02-21T23:46:31;100745.81;;;-7.94;100.00
42859;BME280;28505;56.970;40.998;2024-02-21T23:51:58;100740.06;;;-6.79;100.00
42859;BME280;28505;56.970;40.998;2024-02-21T23:57:25;100746.66;;;-6.67;100.00
